Homestead Gen Aviation, FL

3:30 AM EST on February 23, 2018 (GMT -0500)
Skydive Miami | | Change Station

Elev 9 ft 25.50 °N, 80.55 °W | Updated 6 seconds ago

Mostly Cloudy
Mostly Cloudy
74.8 °F
Feels Like 75 °F
N
6.7
Wind Variable Wind from North
Gusts 9.4 mph

Today
High -- | Low -- °F
--% Chance of Precip.
Yesterday
High -- | Low -- °F
Precip. -- in
Pressure 30.28 in
Visibility 10.0 miles
Clouds Mostly Cloudy 2100 ft
Mostly Cloudy 3200 ft
Mostly Cloudy 4700 ft
Overcast 6500 ft
Heat Index 75 °F
Dew Point 68 °F
Humidity 80%
Rainfall 0.02 in
Snow Depth Not available.
6:50 AM 6:20 PM
Waxing Crescent, 50% visible
SPECI KHST 230823Z AUTO 12004KT 10SM BKN021 BKN032 BKN047 OVC065 23/21 A3027 RMK AO2 RAE18DZB18E23 SLP254
Pressure 30.28 in
Visibility 10.0 miles
Clouds Mostly Cloudy 2100 ft
Mostly Cloudy 3200 ft
Mostly Cloudy 4700 ft
Overcast 6500 ft
Heat Index 75 °F
Dew Point 68 °F
Humidity 80%
Rainfall 0.02 in
Snow Depth Not available.
6:50 AM 6:20 PM
Waxing Crescent, 50% visible
SPECI KHST 230823Z AUTO 12004KT 10SM BKN021 BKN032 BKN047 OVC065 23/21 A3027 RMK AO2 RAE18DZB18E23 SLP254

Get Severe Weather Alerts

Thanks for signing up!

Be on the lookout for a verification email in your inbox.

You'll start receiving the daily forecast at 6 AM.

×

10-Day Weather Forecast

Almanac

Astronomy

Feb. 23, 2018 Rise Set
Actual Time
Civil Twilight
Nautical Twilight
Astronomical Twilight
Moon
Length of Visible Light
Length of Day
Tomorrow will be .
, % of the Moon is Illuminated

Today's Extremes

State Highs State Lows

Community

WunderPhotos

Category 6

Welcome to Category 6. This is the collective home for Weather Underground's featured writeups by Dr. Jeff Masters (right), Bob Henson (left), Chris Burt, and other regular contributors.

Nearby

Air Quality

  Air Quality AQ Index Pollutant
Not available.

Snow Depth

Station Depth Elevation

Earthquake Activity

City Distance Mag. Time & Date
Minimum magnitude displayed is 2.5.

Coastal Water Temperatures

Place Temperature

Stations

Nearby Weather Stations

Station Location Temp. Windchill Dew Point Humidity Wind Precip. Elev Updated Type
                   

Watches & Warnings

There are currently no watches in effect.